sensor_id;sensor_type;location;lat;lon;timestamp;P1;durP1;ratioP1;P2;durP2;ratioP2
20417;SDS011;10368;51.436;6.774;2022-12-28T00:01:10;5.20;;;2.60;;
20417;SDS011;10368;51.436;6.774;2022-12-28T00:03:38;4.20;;;2.00;;
20417;SDS011;10368;51.436;6.774;2022-12-28T00:06:05;6.50;;;1.93;;
20417;SDS011;10368;51.436;6.774;2022-12-28T00:08:33;4.40;;;2.53;;
20417;SDS011;10368;51.436;6.774;2022-12-28T00:11:00;5.00;;;1.87;;
20417;SDS011;10368;51.436;6.774;2022-12-28T00:13:35;5.53;;;1.90;;
20417;SDS011;10368;51.436;6.774;2022-12-28T00:16:10;4.50;;;2.03;;
20417;SDS011;10368;51.436;6.774;2022-12-28T00:18:39;4.40;;;1.70;;
20417;SDS011;10368;51.436;6.774;2022-12-28T00:21:06;2.93;;;1.60;;
20417;SDS011;10368;51.436;6.774;2022-12-28T00:23:33;4.43;;;1.60;;
20417;SDS011;10368;51.436;6.774;2022-12-28T00:26:06;3.43;;;1.80;;
20417;SDS011;10368;51.436;6.774;2022-12-28T00:28:33;5.50;;;1.93;;
20417;SDS011;10368;51.436;6.774;2022-12-28T00:31:01;4.33;;;1.90;;
20417;SDS011;10368;51.436;6.774;2022-12-28T00:33:28;7.63;;;3.17;;
20417;SDS011;10368;51.436;6.774;2022-12-28T00:35:56;3.70;;;2.40;;
20417;SDS011;10368;51.436;6.774;2022-12-28T00:38:24;7.07;;;3.00;;
20417;SDS011;10368;51.436;6.774;2022-12-28T00:40:51;5.33;;;2.10;;
20417;SDS011;10368;51.436;6.774;2022-12-28T00:43:19;5.37;;;2.00;;
20417;SDS011;10368;51.436;6.774;2022-12-28T00:45:46;9.50;;;3.23;;
20417;SDS011;10368;51.436;6.774;2022-12-28T00:48:14;7.03;;;2.83;;
20417;SDS011;10368;51.436;6.774;2022-12-28T00:50:41;5.17;;;2.30;;
20417;SDS011;10368;51.436;6.774;2022-12-28T00:53:09;4.60;;;1.73;;
20417;SDS011;10368;51.436;6.774;2022-12-28T00:55:37;5.63;;;2.27;;
20417;SDS011;10368;51.436;6.774;2022-12-28T00:58:04;7.80;;;2.17;;
20417;SDS011;10368;51.436;6.774;2022-12-28T01:00:32;6.40;;;2.13;;
20417;SDS011;10368;51.436;6.774;2022-12-28T01:02:59;6.27;;;2.10;;
20417;SDS011;10368;51.436;6.774;2022-12-28T01:05:27;3.87;;;2.47;;
20417;SDS011;10368;51.436;6.774;2022-12-28T01:07:54;5.00;;;2.33;;
20417;SDS011;10368;51.436;6.774;2022-12-28T01:10:21;5.63;;;2.73;;
20417;SDS011;10368;51.436;6.774;2022-12-28T01:12:49;4.77;;;2.57;;
20417;SDS011;10368;51.436;6.774;2022-12-28T01:15:16;5.67;;;2.17;;
20417;SDS011;10368;51.436;6.774;2022-12-28T01:17:43;4.90;;;2.80;;
20417;SDS011;10368;51.436;6.774;2022-12-28T01:20:10;2.87;;;1.63;;
20417;SDS011;10368;51.436;6.774;2022-12-28T01:22:38;6.47;;;2.13;;
20417;SDS011;10368;51.436;6.774;2022-12-28T01:25:05;3.33;;;2.13;;
20417;SDS011;10368;51.436;6.774;2022-12-28T01:27:32;3.70;;;2.00;;
20417;SDS011;10368;51.436;6.774;2022-12-28T01:29:59;4.03;;;1.90;;
20417;SDS011;10368;51.436;6.774;2022-12-28T01:32:27;5.93;;;2.20;;
20417;SDS011;10368;51.436;6.774;2022-12-28T01:34:54;6.07;;;2.83;;
20417;SDS011;10368;51.436;6.774;2022-12-28T01:37:23;3.23;;;1.87;;
20417;SDS011;10368;51.436;6.774;2022-12-28T01:39:51;7.27;;;2.10;;
20417;SDS011;10368;51.436;6.774;2022-12-28T01:42:18;5.10;;;2.07;;
20417;SDS011;10368;51.436;6.774;2022-12-28T01:44:46;4.77;;;2.30;;
20417;SDS011;10368;51.436;6.774;2022-12-28T01:47:24;6.53;;;2.63;;
20417;SDS011;10368;51.436;6.774;2022-12-28T01:50:02;3.33;;;2.30;;
20417;SDS011;10368;51.436;6.774;2022-12-28T01:52:38;3.23;;;1.70;;
20417;SDS011;10368;51.436;6.774;2022-12-28T01:55:11;5.37;;;2.57;;
20417;SDS011;10368;51.436;6.774;2022-12-28T01:57:44;2.43;;;1.87;;
20417;SDS011;10368;51.436;6.774;2022-12-28T02:00:13;5.43;;;2.17;;
20417;SDS011;10368;51.436;6.774;2022-12-28T02:02:55;10.30;;;2.40;;
20417;SDS011;10368;51.436;6.774;2022-12-28T02:05:23;4.87;;;2.73;;
20417;SDS011;10368;51.436;6.774;2022-12-28T02:10:19;3.47;;;2.23;;
20417;SDS011;10368;51.436;6.774;2022-12-28T02:13:06;3.23;;;1.63;;
20417;SDS011;10368;51.436;6.774;2022-12-28T02:15:34;3.90;;;2.17;;
20417;SDS011;10368;51.436;6.774;2022-12-28T02:18:01;5.27;;;2.30;;
20417;SDS011;10368;51.436;6.774;2022-12-28T02:20:32;2.40;;;1.73;;
20417;SDS011;10368;51.436;6.774;2022-12-28T02:31:50;6.30;;;2.10;;
20417;SDS011;10368;51.436;6.774;2022-12-28T02:34:01;6.00;;;2.10;;
20417;SDS011;10368;51.436;6.774;2022-12-28T02:36:33;5.60;;;2.00;;
20417;SDS011;10368;51.436;6.774;2022-12-28T02:39:05;3.43;;;2.03;;
20417;SDS011;10368;51.436;6.774;2022-12-28T02:41:35;3.37;;;1.87;;
20417;SDS011;10368;51.436;6.774;2022-12-28T02:44:04;4.17;;;1.83;;
20417;SDS011;10368;51.436;6.774;2022-12-28T02:46:32;6.50;;;2.10;;
20417;SDS011;10368;51.436;6.774;2022-12-28T03:05:06;6.33;;;1.67;;
20417;SDS011;10368;51.436;6.774;2022-12-28T03:07:38;2.87;;;1.67;;
20417;SDS011;10368;51.436;6.774;2022-12-28T03:14:23;4.03;;;2.27;;
20417;SDS011;10368;51.436;6.774;2022-12-28T03:16:35;5.40;;;2.07;;
20417;SDS011;10368;51.436;6.774;2022-12-28T03:19:25;4.30;;;1.67;;
20417;SDS011;10368;51.436;6.774;2022-12-28T03:22:12;3.80;;;1.70;;
20417;SDS011;10368;51.436;6.774;2022-12-28T03:24:59;3.40;;;1.50;;
20417;SDS011;10368;51.436;6.774;2022-12-28T03:27:46;4.10;;;1.53;;
20417;SDS011;10368;51.436;6.774;2022-12-28T03:30:33;5.67;;;1.83;;
20417;SDS011;10368;51.436;6.774;2022-12-28T03:33:21;3.20;;;2.10;;
20417;SDS011;10368;51.436;6.774;2022-12-28T03:35:51;2.77;;;1.77;;
20417;SDS011;10368;51.436;6.774;2022-12-28T03:38:26;2.60;;;1.60;;
20417;SDS011;10368;51.436;6.774;2022-12-28T03:41:00;3.70;;;1.93;;
20417;SDS011;10368;51.436;6.774;2022-12-28T03:43:30;2.73;;;1.80;;
20417;SDS011;10368;51.436;6.774;2022-12-28T03:48:35;4.33;;;1.67;;
20417;SDS011;10368;51.436;6.774;2022-12-28T03:51:03;1.97;;;1.43;;
20417;SDS011;10368;51.436;6.774;2022-12-28T03:53:43;3.57;;;1.40;;
20417;SDS011;10368;51.436;6.774;2022-12-28T03:56:17;1.73;;;1.63;;
20417;SDS011;10368;51.436;6.774;2022-12-28T03:58:44;6.33;;;1.70;;
20417;SDS011;10368;51.436;6.774;2022-12-28T04:01:12;2.57;;;1.43;;
20417;SDS011;10368;51.436;6.774;2022-12-28T04:03:39;5.73;;;1.40;;
20417;SDS011;10368;51.436;6.774;2022-12-28T04:06:08;1.70;;;1.50;;
20417;SDS011;10368;51.436;6.774;2022-12-28T04:08:36;3.73;;;1.70;;
20417;SDS011;10368;51.436;6.774;2022-12-28T04:11:03;2.77;;;1.20;;
20417;SDS011;10368;51.436;6.774;2022-12-28T04:13:30;6.73;;;1.77;;
20417;SDS011;10368;51.436;6.774;2022-12-28T04:16:01;2.33;;;1.50;;
20417;SDS011;10368;51.436;6.774;2022-12-28T04:18:29;2.53;;;1.50;;
20417;SDS011;10368;51.436;6.774;2022-12-28T04:20:57;2.53;;;1.30;;
20417;SDS011;10368;51.436;6.774;2022-12-28T04:23:24;2.77;;;1.43;;
20417;SDS011;10368;51.436;6.774;2022-12-28T04:25:59;2.90;;;1.50;;
20417;SDS011;10368;51.436;6.774;2022-12-28T04:28:27;3.30;;;2.00;;
20417;SDS011;10368;51.436;6.774;2022-12-28T04:30:54;3.13;;;1.40;;
20417;SDS011;10368;51.436;6.774;2022-12-28T04:33:22;4.00;;;1.73;;
20417;SDS011;10368;51.436;6.774;2022-12-28T04:35:49;5.87;;;2.20;;
20417;SDS011;10368;51.436;6.774;2022-12-28T04:38:17;2.83;;;2.20;;
20417;SDS011;10368;51.436;6.774;2022-12-28T04:40:44;2.90;;;1.97;;
20417;SDS011;10368;51.436;6.774;2022-12-28T04:43:11;4.53;;;2.00;;
20417;SDS011;10368;51.436;6.774;2022-12-28T04:45:39;4.93;;;2.33;;
20417;SDS011;10368;51.436;6.774;2022-12-28T04:48:06;11.50;;;3.37;;
20417;SDS011;10368;51.436;6.774;2022-12-28T04:50:34;5.23;;;3.50;;
20417;SDS011;10368;51.436;6.774;2022-12-28T04:53:02;4.03;;;3.33;;
20417;SDS011;10368;51.436;6.774;2022-12-28T04:55:29;9.10;;;4.00;;
20417;SDS011;10368;51.436;6.774;2022-12-28T04:57:58;7.80;;;3.67;;
20417;SDS011;10368;51.436;6.774;2022-12-28T05:00:26;5.43;;;3.70;;
20417;SDS011;10368;51.436;6.774;2022-12-28T05:02:53;6.80;;;4.10;;
20417;SDS011;10368;51.436;6.774;2022-12-28T05:05:20;7.50;;;3.27;;
20417;SDS011;10368;51.436;6.774;2022-12-28T05:07:48;10.27;;;4.77;;
20417;SDS011;10368;51.436;6.774;2022-12-28T05:10:15;6.80;;;3.80;;
20417;SDS011;10368;51.436;6.774;2022-12-28T05:12:42;9.13;;;4.77;;
20417;SDS011;10368;51.436;6.774;2022-12-28T05:15:09;6.03;;;3.80;;
20417;SDS011;10368;51.436;6.774;2022-12-28T05:17:36;5.60;;;3.67;;
20417;SDS011;10368;51.436;6.774;2022-12-28T05:20:04;7.57;;;3.70;;
20417;SDS011;10368;51.436;6.774;2022-12-28T05:22:31;5.50;;;3.07;;
20417;SDS011;10368;51.436;6.774;2022-12-28T05:25:06;6.03;;;3.60;;
20417;SDS011;10368;51.436;6.774;2022-12-28T05:27:33;7.13;;;3.13;;
20417;SDS011;10368;51.436;6.774;2022-12-28T05:30:00;4.53;;;2.60;;
20417;SDS011;10368;51.436;6.774;2022-12-28T05:32:27;5.77;;;3.07;;
20417;SDS011;10368;51.436;6.774;2022-12-28T05:34:54;3.07;;;1.90;;
20417;SDS011;10368;51.436;6.774;2022-12-28T05:37:21;2.10;;;1.63;;
20417;SDS011;10368;51.436;6.774;2022-12-28T05:39:47;3.70;;;1.97;;
20417;SDS011;10368;51.436;6.774;2022-12-28T05:42:14;3.60;;;2.10;;
20417;SDS011;10368;51.436;6.774;2022-12-28T05:44:41;4.00;;;2.10;;
20417;SDS011;10368;51.436;6.774;2022-12-28T05:47:08;1.90;;;1.77;;
20417;SDS011;10368;51.436;6.774;2022-12-28T05:49:35;2.37;;;2.03;;
20417;SDS011;10368;51.436;6.774;2022-12-28T05:52:01;4.20;;;2.00;;
20417;SDS011;10368;51.436;6.774;2022-12-28T05:54:28;4.63;;;2.00;;
20417;SDS011;10368;51.436;6.774;2022-12-28T05:56:55;3.80;;;2.03;;
20417;SDS011;10368;51.436;6.774;2022-12-28T05:59:22;3.93;;;1.87;;
20417;SDS011;10368;51.436;6.774;2022-12-28T06:01:49;3.07;;;1.70;;
20417;SDS011;10368;51.436;6.774;2022-12-28T06:04:17;5.23;;;2.33;;
20417;SDS011;10368;51.436;6.774;2022-12-28T06:06:45;3.33;;;2.03;;
20417;SDS011;10368;51.436;6.774;2022-12-28T06:09:13;4.80;;;2.00;;
20417;SDS011;10368;51.436;6.774;2022-12-28T06:11:40;4.50;;;2.03;;
20417;SDS011;10368;51.436;6.774;2022-12-28T06:14:07;4.33;;;2.03;;
20417;SDS011;10368;51.436;6.774;2022-12-28T06:16:36;5.50;;;2.17;;
20417;SDS011;10368;51.436;6.774;2022-12-28T06:19:05;2.73;;;2.20;;
20417;SDS011;10368;51.436;6.774;2022-12-28T06:21:35;3.07;;;2.20;;
20417;SDS011;10368;51.436;6.774;2022-12-28T06:24:03;5.57;;;2.70;;
20417;SDS011;10368;51.436;6.774;2022-12-28T06:26:32;2.00;;;1.77;;
20417;SDS011;10368;51.436;6.774;2022-12-28T06:29:01;6.57;;;2.27;;
20417;SDS011;10368;51.436;6.774;2022-12-28T06:31:29;5.07;;;2.23;;
20417;SDS011;10368;51.436;6.774;2022-12-28T06:34:02;4.77;;;2.63;;
20417;SDS011;10368;51.436;6.774;2022-12-28T06:36:34;5.77;;;2.67;;
20417;SDS011;10368;51.436;6.774;2022-12-28T06:39:03;5.97;;;2.03;;
20417;SDS011;10368;51.436;6.774;2022-12-28T06:41:31;4.33;;;2.20;;
20417;SDS011;10368;51.436;6.774;2022-12-28T06:43:59;6.23;;;2.40;;
20417;SDS011;10368;51.436;6.774;2022-12-28T06:46:27;2.40;;;1.87;;
20417;SDS011;10368;51.436;6.774;2022-12-28T06:48:56;4.10;;;2.07;;
20417;SDS011;10368;51.436;6.774;2022-12-28T06:53:52;3.50;;;1.70;;
20417;SDS011;10368;51.436;6.774;2022-12-28T06:56:28;4.57;;;2.10;;
20417;SDS011;10368;51.436;6.774;2022-12-28T06:58:56;2.80;;;2.13;;
20417;SDS011;10368;51.436;6.774;2022-12-28T07:01:30;3.87;;;1.90;;
20417;SDS011;10368;51.436;6.774;2022-12-28T07:03:58;6.70;;;2.10;;
20417;SDS011;10368;51.436;6.774;2022-12-28T07:06:27;2.80;;;2.13;;
20417;SDS011;10368;51.436;6.774;2022-12-28T07:09:02;3.53;;;2.10;;
20417;SDS011;10368;51.436;6.774;2022-12-28T07:11:31;2.97;;;2.40;;
20417;SDS011;10368;51.436;6.774;2022-12-28T07:13:59;3.77;;;1.90;;
20417;SDS011;10368;51.436;6.774;2022-12-28T07:16:27;4.47;;;2.47;;
20417;SDS011;10368;51.436;6.774;2022-12-28T07:18:57;4.03;;;1.73;;
20417;SDS011;10368;51.436;6.774;2022-12-28T07:21:26;3.03;;;2.00;;
20417;SDS011;10368;51.436;6.774;2022-12-28T07:23:55;4.50;;;1.70;;
20417;SDS011;10368;51.436;6.774;2022-12-28T07:26:23;3.87;;;2.07;;
20417;SDS011;10368;51.436;6.774;2022-12-28T07:28:54;2.93;;;1.87;;
20417;SDS011;10368;51.436;6.774;2022-12-28T07:31:23;2.73;;;2.00;;
20417;SDS011;10368;51.436;6.774;2022-12-28T07:33:53;4.70;;;2.70;;
20417;SDS011;10368;51.436;6.774;2022-12-28T07:36:21;3.83;;;1.90;;
20417;SDS011;10368;51.436;6.774;2022-12-28T07:38:50;7.50;;;2.30;;
20417;SDS011;10368;51.436;6.774;2022-12-28T07:41:21;6.53;;;2.23;;
20417;SDS011;10368;51.436;6.774;2022-12-28T07:43:50;2.97;;;1.70;;
20417;SDS011;10368;51.436;6.774;2022-12-28T07:46:18;3.33;;;1.90;;
20417;SDS011;10368;51.436;6.774;2022-12-28T07:48:47;6.67;;;2.10;;
20417;SDS011;10368;51.436;6.774;2022-12-28T07:51:19;3.40;;;1.63;;
20417;SDS011;10368;51.436;6.774;2022-12-28T07:53:49;3.63;;;1.50;;
20417;SDS011;10368;51.436;6.774;2022-12-28T07:56:17;2.37;;;1.70;;
20417;SDS011;10368;51.436;6.774;2022-12-28T07:58:51;2.60;;;1.50;;
20417;SDS011;10368;51.436;6.774;2022-12-28T08:01:22;2.73;;;1.60;;
20417;SDS011;10368;51.436;6.774;2022-12-28T08:03:51;2.57;;;2.03;;
20417;SDS011;10368;51.436;6.774;2022-12-28T08:06:26;3.90;;;1.93;;
20417;SDS011;10368;51.436;6.774;2022-12-28T08:08:57;3.13;;;1.40;;
20417;SDS011;10368;51.436;6.774;2022-12-28T08:11:27;4.50;;;1.97;;
20417;SDS011;10368;51.436;6.774;2022-12-28T08:13:56;2.20;;;1.60;;
20417;SDS011;10368;51.436;6.774;2022-12-28T08:16:24;1.63;;;1.30;;
20417;SDS011;10368;51.436;6.774;2022-12-28T08:18:54;2.97;;;1.50;;
20417;SDS011;10368;51.436;6.774;2022-12-28T08:21:23;1.70;;;1.60;;
20417;SDS011;10368;51.436;6.774;2022-12-28T08:23:52;4.30;;;1.43;;
20417;SDS011;10368;51.436;6.774;2022-12-28T08:26:20;2.70;;;1.60;;
20417;SDS011;10368;51.436;6.774;2022-12-28T08:28:50;2.47;;;1.43;;
20417;SDS011;10368;51.436;6.774;2022-12-28T08:31:19;1.20;;;1.10;;
20417;SDS011;10368;51.436;6.774;2022-12-28T08:33:53;2.70;;;1.13;;
20417;SDS011;10368;51.436;6.774;2022-12-28T08:36:22;2.73;;;1.10;;
20417;SDS011;10368;51.436;6.774;2022-12-28T08:38:50;2.57;;;1.13;;
20417;SDS011;10368;51.436;6.774;2022-12-28T08:41:20;3.40;;;1.20;;
20417;SDS011;10368;51.436;6.774;2022-12-28T08:43:49;1.47;;;1.30;;
20417;SDS011;10368;51.436;6.774;2022-12-28T08:48:46;1.77;;;1.10;;
20417;SDS011;10368;51.436;6.774;2022-12-28T08:51:18;1.53;;;1.20;;
20417;SDS011;10368;51.436;6.774;2022-12-28T08:53:47;4.03;;;1.37;;
20417;SDS011;10368;51.436;6.774;2022-12-28T08:56:19;1.47;;;0.90;;
20417;SDS011;10368;51.436;6.774;2022-12-28T08:58:48;3.63;;;1.77;;
20417;SDS011;10368;51.436;6.774;2022-12-28T09:01:19;6.10;;;3.00;;
20417;SDS011;10368;51.436;6.774;2022-12-28T09:03:53;3.93;;;2.50;;
20417;SDS011;10368;51.436;6.774;2022-12-28T09:06:23;2.93;;;2.00;;
20417;SDS011;10368;51.436;6.774;2022-12-28T09:08:57;6.37;;;2.00;;
20417;SDS011;10368;51.436;6.774;2022-12-28T09:11:35;1.73;;;1.23;;
20417;SDS011;10368;51.436;6.774;2022-12-28T09:14:04;1.90;;;1.40;;
20417;SDS011;10368;51.436;6.774;2022-12-28T09:16:33;1.67;;;1.00;;
20417;SDS011;10368;51.436;6.774;2022-12-28T09:19:02;3.77;;;1.10;;
20417;SDS011;10368;51.436;6.774;2022-12-28T09:21:31;2.70;;;1.10;;
20417;SDS011;10368;51.436;6.774;2022-12-28T09:24:00;1.50;;;0.90;;
20417;SDS011;10368;51.436;6.774;2022-12-28T09:26:29;3.57;;;0.90;;
20417;SDS011;10368;51.436;6.774;2022-12-28T09:29:01;1.37;;;0.93;;
20417;SDS011;10368;51.436;6.774;2022-12-28T09:31:29;2.73;;;1.10;;
20417;SDS011;10368;51.436;6.774;2022-12-28T09:33:58;3.43;;;1.10;;
20417;SDS011;10368;51.436;6.774;2022-12-28T09:36:47;3.53;;;1.03;;
20417;SDS011;10368;51.436;6.774;2022-12-28T09:39:15;2.47;;;1.10;;
20417;SDS011;10368;51.436;6.774;2022-12-28T09:44:18;1.40;;;0.73;;
20417;SDS011;10368;51.436;6.774;2022-12-28T09:49:48;1.17;;;1.00;;
20417;SDS011;10368;51.436;6.774;2022-12-28T09:52:36;1.10;;;0.93;;
20417;SDS011;10368;51.436;6.774;2022-12-28T09:55:25;1.33;;;1.23;;
20417;SDS011;10368;51.436;6.774;2022-12-28T09:57:53;0.70;;;0.70;;
20417;SDS011;10368;51.436;6.774;2022-12-28T10:00:36;1.53;;;1.10;;
20417;SDS011;10368;51.436;6.774;2022-12-28T10:03:25;0.93;;;0.90;;
20417;SDS011;10368;51.436;6.774;2022-12-28T10:06:00;5.83;;;0.90;;
20417;SDS011;10368;51.436;6.774;2022-12-28T10:08:28;1.60;;;0.80;;
20417;SDS011;10368;51.436;6.774;2022-12-28T10:10:58;1.10;;;1.00;;
20417;SDS011;10368;51.436;6.774;2022-12-28T10:13:29;2.90;;;0.90;;
20417;SDS011;10368;51.436;6.774;2022-12-28T10:16:20;1.53;;;1.00;;
20417;SDS011;10368;51.436;6.774;2022-12-28T10:18:47;2.60;;;1.40;;
20417;SDS011;10368;51.436;6.774;2022-12-28T10:21:16;2.03;;;1.30;;
20417;SDS011;10368;51.436;6.774;2022-12-28T10:23:49;1.80;;;1.00;;
20417;SDS011;10368;51.436;6.774;2022-12-28T10:26:39;3.80;;;1.60;;
20417;SDS011;10368;51.436;6.774;2022-12-28T10:29:07;1.77;;;1.00;;
20417;SDS011;10368;51.436;6.774;2022-12-28T10:31:37;0.80;;;0.60;;
20417;SDS011;10368;51.436;6.774;2022-12-28T10:34:14;2.53;;;0.70;;
20417;SDS011;10368;51.436;6.774;2022-12-28T10:36:43;2.50;;;1.03;;
20417;SDS011;10368;51.436;6.774;2022-12-28T10:39:24;1.30;;;0.97;;
20417;SDS011;10368;51.436;6.774;2022-12-28T10:41:52;1.77;;;0.90;;
20417;SDS011;10368;51.436;6.774;2022-12-28T10:44:33;1.37;;;0.90;;
20417;SDS011;10368;51.436;6.774;2022-12-28T10:47:14;1.20;;;0.80;;
20417;SDS011;10368;51.436;6.774;2022-12-28T10:49:49;2.83;;;1.27;;
20417;SDS011;10368;51.436;6.774;2022-12-28T10:52:36;1.87;;;1.03;;
20417;SDS011;10368;51.436;6.774;2022-12-28T11:49:26;2.13;;;1.80;;
20417;SDS011;10368;51.436;6.774;2022-12-28T11:54:49;1.93;;;1.20;;
20417;SDS011;10368;51.436;6.774;2022-12-28T12:02:58;5.70;;;1.33;;
20417;SDS011;10368;51.436;6.774;2022-12-28T12:10:39;2.90;;;1.33;;
20417;SDS011;10368;51.436;6.774;2022-12-28T12:13:41;3.80;;;1.30;;
20417;SDS011;10368;51.436;6.774;2022-12-28T12:19:16;3.07;;;1.60;;
20417;SDS011;10368;51.436;6.774;2022-12-28T12:21:54;4.60;;;1.60;;
20417;SDS011;10368;51.436;6.774;2022-12-28T12:24:31;2.37;;;1.23;;
20417;SDS011;10368;51.436;6.774;2022-12-28T12:27:13;2.87;;;1.43;;
20417;SDS011;10368;51.436;6.774;2022-12-28T12:29:45;2.93;;;1.53;;
20417;SDS011;10368;51.436;6.774;2022-12-28T12:32:21;2.43;;;1.40;;
20417;SDS011;10368;51.436;6.774;2022-12-28T12:34:55;1.50;;;1.00;;
20417;SDS011;10368;51.436;6.774;2022-12-28T12:40:15;2.77;;;1.30;;
20417;SDS011;10368;51.436;6.774;2022-12-28T12:48:47;1.40;;;1.20;;
20417;SDS011;10368;51.436;6.774;2022-12-28T12:57:09;4.37;;;1.63;;
20417;SDS011;10368;51.436;6.774;2022-12-28T12:59:48;5.43;;;2.70;;
20417;SDS011;10368;51.436;6.774;2022-12-28T13:05:21;2.13;;;1.50;;
20417;SDS011;10368;51.436;6.774;2022-12-28T13:07:55;3.30;;;1.77;;
20417;SDS011;10368;51.436;6.774;2022-12-28T13:12:57;3.47;;;2.27;;
20417;SDS011;10368;51.436;6.774;2022-12-28T13:15:25;4.67;;;2.20;;
20417;SDS011;10368;51.436;6.774;2022-12-28T13:20:56;6.77;;;2.63;;
20417;SDS011;10368;51.436;6.774;2022-12-28T13:23:41;6.90;;;2.37;;
20417;SDS011;10368;51.436;6.774;2022-12-28T13:26:10;2.93;;;1.70;;
20417;SDS011;10368;51.436;6.774;2022-12-28T13:28:53;2.97;;;1.30;;
20417;SDS011;10368;51.436;6.774;2022-12-28T13:31:36;2.20;;;1.40;;
20417;SDS011;10368;51.436;6.774;2022-12-28T13:37:00;3.80;;;1.40;;
20417;SDS011;10368;51.436;6.774;2022-12-28T13:39:32;1.67;;;1.00;;
20417;SDS011;10368;51.436;6.774;2022-12-28T13:45:06;1.30;;;1.10;;
20417;SDS011;10368;51.436;6.774;2022-12-28T13:47:42;1.67;;;1.20;;
20417;SDS011;10368;51.436;6.774;2022-12-28T13:55:14;3.10;;;1.50;;
20417;SDS011;10368;51.436;6.774;2022-12-28T13:57:44;4.83;;;1.80;;
20417;SDS011;10368;51.436;6.774;2022-12-28T14:00:22;4.23;;;2.07;;
20417;SDS011;10368;51.436;6.774;2022-12-28T14:02:50;2.57;;;1.80;;
20417;SDS011;10368;51.436;6.774;2022-12-28T14:05:20;3.90;;;1.40;;
20417;SDS011;10368;51.436;6.774;2022-12-28T14:07:50;3.00;;;1.83;;
20417;SDS011;10368;51.436;6.774;2022-12-28T14:10:19;2.10;;;1.30;;
20417;SDS011;10368;51.436;6.774;2022-12-28T14:12:47;1.80;;;1.33;;
20417;SDS011;10368;51.436;6.774;2022-12-28T14:15:15;2.40;;;1.40;;
20417;SDS011;10368;51.436;6.774;2022-12-28T14:17:42;2.50;;;1.53;;
20417;SDS011;10368;51.436;6.774;2022-12-28T14:20:15;2.50;;;1.20;;
20417;SDS011;10368;51.436;6.774;2022-12-28T14:22:42;1.40;;;1.20;;
20417;SDS011;10368;51.436;6.774;2022-12-28T14:25:10;2.37;;;1.50;;
20417;SDS011;10368;51.436;6.774;2022-12-28T14:30:40;3.80;;;1.73;;
20417;SDS011;10368;51.436;6.774;2022-12-28T14:33:13;4.37;;;1.87;;
20417;SDS011;10368;51.436;6.774;2022-12-28T14:35:50;2.10;;;1.47;;
20417;SDS011;10368;51.436;6.774;2022-12-28T14:38:22;5.00;;;1.70;;
20417;SDS011;10368;51.436;6.774;2022-12-28T14:40:53;3.13;;;1.87;;
20417;SDS011;10368;51.436;6.774;2022-12-28T14:43:25;3.50;;;1.63;;
20417;SDS011;10368;51.436;6.774;2022-12-28T14:45:54;2.00;;;1.40;;
20417;SDS011;10368;51.436;6.774;2022-12-28T14:48:36;3.73;;;1.63;;
20417;SDS011;10368;51.436;6.774;2022-12-28T14:53:43;4.43;;;1.70;;
20417;SDS011;10368;51.436;6.774;2022-12-28T14:58:53;2.83;;;1.60;;
20417;SDS011;10368;51.436;6.774;2022-12-28T15:01:39;3.57;;;1.73;;
20417;SDS011;10368;51.436;6.774;2022-12-28T15:04:10;2.57;;;1.77;;
20417;SDS011;10368;51.436;6.774;2022-12-28T15:06:51;2.43;;;1.70;;
20417;SDS011;10368;51.436;6.774;2022-12-28T15:09:18;5.10;;;1.97;;
20417;SDS011;10368;51.436;6.774;2022-12-28T15:11:44;3.30;;;1.60;;
20417;SDS011;10368;51.436;6.774;2022-12-28T15:14:11;3.13;;;1.87;;
20417;SDS011;10368;51.436;6.774;2022-12-28T15:16:38;4.30;;;2.00;;
20417;SDS011;10368;51.436;6.774;2022-12-28T15:19:05;4.90;;;1.87;;
20417;SDS011;10368;51.436;6.774;2022-12-28T15:21:32;3.87;;;1.70;;
20417;SDS011;10368;51.436;6.774;2022-12-28T15:23:59;3.63;;;1.83;;
20417;SDS011;10368;51.436;6.774;2022-12-28T15:26:27;2.20;;;1.57;;
20417;SDS011;10368;51.436;6.774;2022-12-28T15:28:54;3.27;;;1.70;;
20417;SDS011;10368;51.436;6.774;2022-12-28T15:31:21;2.67;;;1.40;;
20417;SDS011;10368;51.436;6.774;2022-12-28T15:33:48;2.77;;;1.50;;
20417;SDS011;10368;51.436;6.774;2022-12-28T15:36:16;2.83;;;1.60;;
20417;SDS011;10368;51.436;6.774;2022-12-28T15:38:45;4.60;;;1.50;;
20417;SDS011;10368;51.436;6.774;2022-12-28T15:41:12;3.50;;;1.60;;
20417;SDS011;10368;51.436;6.774;2022-12-28T15:43:58;5.00;;;2.00;;
20417;SDS011;10368;51.436;6.774;2022-12-28T15:46:25;4.80;;;3.50;;
20417;SDS011;10368;51.436;6.774;2022-12-28T15:48:52;5.95;;;3.38;;
20417;SDS011;10368;51.436;6.774;2022-12-28T15:51:19;4.07;;;2.00;;
20417;SDS011;10368;51.436;6.774;2022-12-28T15:53:46;4.23;;;2.07;;
20417;SDS011;10368;51.436;6.774;2022-12-28T15:56:20;3.53;;;2.30;;
20417;SDS011;10368;51.436;6.774;2022-12-28T15:58:50;2.83;;;2.07;;
20417;SDS011;10368;51.436;6.774;2022-12-28T16:01:19;2.47;;;2.03;;
20417;SDS011;10368;51.436;6.774;2022-12-28T16:03:53;3.27;;;1.83;;
20417;SDS011;10368;51.436;6.774;2022-12-28T16:06:22;3.90;;;2.00;;
20417;SDS011;10368;51.436;6.774;2022-12-28T16:08:53;2.53;;;1.63;;
20417;SDS011;10368;51.436;6.774;2022-12-28T16:11:21;3.77;;;1.67;;
20417;SDS011;10368;51.436;6.774;2022-12-28T16:13:51;3.57;;;1.80;;
20417;SDS011;10368;51.436;6.774;2022-12-28T16:16:18;3.93;;;2.27;;
20417;SDS011;10368;51.436;6.774;2022-12-28T16:18:46;6.63;;;2.23;;
20417;SDS011;10368;51.436;6.774;2022-12-28T16:21:14;2.20;;;1.87;;
20417;SDS011;10368;51.436;6.774;2022-12-28T16:23:42;2.53;;;1.47;;
20417;SDS011;10368;51.436;6.774;2022-12-28T16:26:10;4.13;;;1.90;;
20417;SDS011;10368;51.436;6.774;2022-12-28T16:28:38;2.70;;;1.57;;
20417;SDS011;10368;51.436;6.774;2022-12-28T16:31:06;2.73;;;1.43;;
20417;SDS011;10368;51.436;6.774;2022-12-28T16:33:33;2.87;;;1.80;;
20417;SDS011;10368;51.436;6.774;2022-12-28T16:36:09;2.70;;;1.77;;
20417;SDS011;10368;51.436;6.774;2022-12-28T16:38:36;1.93;;;1.50;;
20417;SDS011;10368;51.436;6.774;2022-12-28T16:41:03;2.67;;;1.77;;
20417;SDS011;10368;51.436;6.774;2022-12-28T16:43:31;3.33;;;1.90;;
20417;SDS011;10368;51.436;6.774;2022-12-28T16:45:58;2.47;;;1.50;;
20417;SDS011;10368;51.436;6.774;2022-12-28T16:48:31;1.93;;;1.20;;
20417;SDS011;10368;51.436;6.774;2022-12-28T16:50:58;4.90;;;1.70;;
20417;SDS011;10368;51.436;6.774;2022-12-28T16:53:26;2.93;;;1.60;;
20417;SDS011;10368;51.436;6.774;2022-12-28T16:55:53;3.10;;;1.80;;
20417;SDS011;10368;51.436;6.774;2022-12-28T16:58:24;4.30;;;2.23;;
20417;SDS011;10368;51.436;6.774;2022-12-28T17:00:51;2.23;;;1.77;;
20417;SDS011;10368;51.436;6.774;2022-12-28T17:03:19;4.43;;;2.30;;
20417;SDS011;10368;51.436;6.774;2022-12-28T17:05:50;3.20;;;1.80;;
20417;SDS011;10368;51.436;6.774;2022-12-28T17:08:17;3.10;;;2.00;;
20417;SDS011;10368;51.436;6.774;2022-12-28T17:10:45;2.77;;;1.87;;
20417;SDS011;10368;51.436;6.774;2022-12-28T17:13:12;2.73;;;1.87;;
20417;SDS011;10368;51.436;6.774;2022-12-28T17:15:41;3.30;;;1.90;;
20417;SDS011;10368;51.436;6.774;2022-12-28T17:18:11;3.50;;;1.80;;
20417;SDS011;10368;51.436;6.774;2022-12-28T17:20:39;4.03;;;2.07;;
20417;SDS011;10368;51.436;6.774;2022-12-28T17:23:06;2.20;;;2.00;;
20417;SDS011;10368;51.436;6.774;2022-12-28T17:25:34;7.83;;;2.10;;
20417;SDS011;10368;51.436;6.774;2022-12-28T17:28:02;4.83;;;1.77;;
20417;SDS011;10368;51.436;6.774;2022-12-28T17:30:29;3.47;;;1.63;;
20417;SDS011;10368;51.436;6.774;2022-12-28T17:32:56;2.13;;;1.93;;
20417;SDS011;10368;51.436;6.774;2022-12-28T17:35:24;5.00;;;2.10;;
20417;SDS011;10368;51.436;6.774;2022-12-28T17:37:51;2.87;;;1.93;;
20417;SDS011;10368;51.436;6.774;2022-12-28T17:40:19;5.67;;;2.50;;
20417;SDS011;10368;51.436;6.774;2022-12-28T17:42:46;4.27;;;2.03;;
20417;SDS011;10368;51.436;6.774;2022-12-28T17:45:13;2.10;;;1.60;;